Time;durP1;ratioP1;P1;durP2;ratioP2;P2;SDS_P1;SDS_P2;PMS_P1;PMS_P2;Temp;Humidity;BMP_temperature;BMP_pressure;BME280_temperature;BME280_humidity;BME280_pressure;Samples;Min_cycle;Max_cycle;Signal;HPM_P1;HPM_P2
2022/05/15 00:01:27;;;;;;;1999.90;999.90;;;16.50;99.90;;;;;;4971554;28;20174;-69
2022/05/15 00:03:52;;;;;;;1999.90;999.90;;;16.50;99.90;;;;;;4971769;28;20409;-69
2022/05/15 00:06:18;;;;;;;1999.90;999.90;;;16.40;99.90;;;;;;4971384;28;20228;-69
2022/05/15 00:08:44;;;;;;;1999.90;999.90;;;16.30;99.90;;;;;;4971950;28;20167;-69
2022/05/15 00:11:12;;;;;;;1999.90;999.90;;;16.20;99.90;;;;;;4971850;28;20416;-69
2022/05/15 00:13:39;;;;;;;1999.90;999.90;;;16.20;99.90;;;;;;4971728;28;20256;-69
2022/05/15 00:16:06;;;;;;;1999.90;999.90;;;16.00;99.90;;;;;;4971284;28;20463;-69
2022/05/15 00:18:32;;;;;;;1999.90;999.90;;;16.00;99.90;;;;;;4971709;28;20798;-69
2022/05/15 00:20:57;;;;;;;1999.90;999.90;;;16.00;99.90;;;;;;4971399;28;20431;-69
2022/05/15 00:23:24;;;;;;;1999.90;999.90;;;15.90;99.90;;;;;;4971320;28;20420;-69
2022/05/15 00:25:50;;;;;;;1999.90;999.90;;;15.80;99.90;;;;;;4971040;28;20208;-69
2022/05/15 00:28:16;;;;;;;1999.90;999.90;;;15.70;99.90;;;;;;4971571;28;20413;-69
2022/05/15 00:30:42;;;;;;;1999.90;999.90;;;15.60;99.90;;;;;;4971552;28;20416;-69
2022/05/15 00:33:08;;;;;;;1999.90;999.90;;;15.50;99.90;;;;;;4971440;28;20253;-69
2022/05/15 00:35:35;;;;;;;1999.90;999.90;;;15.50;99.90;;;;;;4971119;28;20935;-69
2022/05/15 00:38:06;;;;;;;1999.90;999.90;;;15.40;99.90;;;;;;4971363;28;20417;-69
2022/05/15 00:40:34;;;;;;;1999.90;999.90;;;15.20;99.90;;;;;;4971375;28;20495;-69
2022/05/15 00:43:00;;;;;;;1999.90;999.90;;;15.10;99.90;;;;;;4971451;28;20421;-69
2022/05/15 00:45:26;;;;;;;1999.90;999.90;;;15.10;99.90;;;;;;4970781;28;20460;-69
2022/05/15 00:47:52;;;;;;;1999.90;999.90;;;15.00;99.90;;;;;;4971069;28;20437;-69
2022/05/15 00:50:26;;;;;;;1999.90;999.90;;;15.00;99.90;;;;;;4971062;28;20412;-69
2022/05/15 00:52:56;;;;;;;1999.90;999.90;;;14.90;99.90;;;;;;4971066;28;20184;-69
2022/05/15 00:55:27;;;;;;;1999.90;999.90;;;14.90;99.90;;;;;;4971295;28;20416;-69
2022/05/15 00:57:58;;;;;;;1999.90;999.90;;;14.90;99.90;;;;;;4971230;28;20496;-69
2022/05/15 01:00:27;;;;;;;1999.90;999.90;;;14.90;99.90;;;;;;4971045;28;20414;-69
2022/05/15 01:03:11;;;;;;;1999.90;999.90;;;15.00;99.90;;;;;;4971176;28;20441;-69
2022/05/15 01:05:42;;;;;;;1999.90;999.90;;;15.00;99.90;;;;;;4970558;28;20941;-69
2022/05/15 01:08:08;;;;;;;1999.90;999.90;;;15.00;99.90;;;;;;4971636;28;20412;-69
2022/05/15 01:10:37;;;;;;;1999.90;999.90;;;15.00;99.90;;;;;;4971653;28;20503;-69
2022/05/15 01:13:04;;;;;;;1999.90;999.90;;;15.00;99.90;;;;;;4970134;28;20414;-69
2022/05/15 01:15:31;;;;;;;1999.90;999.90;;;14.90;99.90;;;;;;4970555;28;20449;-69
2022/05/15 01:17:56;;;;;;;1999.90;999.90;;;14.90;99.90;;;;;;4971625;28;20477;-71
2022/05/15 01:20:26;;;;;;;1999.90;999.90;;;14.80;99.90;;;;;;4971391;28;20427;-71
2022/05/15 01:22:52;;;;;;;1999.90;999.90;;;14.70;99.90;;;;;;4971166;28;20174;-69
2022/05/15 01:25:26;;;;;;;1999.90;999.90;;;14.70;99.90;;;;;;4970667;28;20855;-69
2022/05/15 01:28:03;;;;;;;1999.90;999.90;;;14.70;99.90;;;;;;4970785;28;20412;-69
2022/05/15 01:30:30;;;;;;;1999.90;999.90;;;14.60;99.90;;;;;;4970808;28;20402;-69
2022/05/15 01:32:55;;;;;;;1999.90;999.90;;;14.50;99.90;;;;;;4970834;28;20772;-69
2022/05/15 01:35:21;;;;;;;1999.90;999.90;;;14.40;99.90;;;;;;4970397;28;20420;-69
2022/05/15 01:37:47;;;;;;;1999.90;999.90;;;14.40;99.90;;;;;;4970544;28;20389;-69
2022/05/15 01:40:13;;;;;;;1999.90;999.90;;;14.40;99.90;;;;;;4970617;28;20172;-69
2022/05/15 01:42:39;;;;;;;1999.90;999.90;;;14.30;99.90;;;;;;4970593;28;20180;-69
2022/05/15 01:45:06;;;;;;;1999.90;999.90;;;14.20;99.90;;;;;;4970304;28;20867;-71
2022/05/15 01:47:32;;;;;;;1999.90;999.90;;;14.10;99.90;;;;;;4971008;28;20275;-71
2022/05/15 01:49:58;;;;;;;1999.90;999.90;;;14.10;99.90;;;;;;4970585;28;20496;-69
2022/05/15 01:52:23;;;;;;;1999.90;999.90;;;14.10;99.90;;;;;;4970236;28;20860;-69
2022/05/15 01:54:49;;;;;;;1999.90;999.90;;;14.10;99.90;;;;;;4969995;28;20180;-69
2022/05/15 01:57:15;;;;;;;1999.90;999.90;;;14.10;99.90;;;;;;4970093;28;20204;-69
2022/05/15 01:59:40;;;;;;;1999.90;999.90;;;14.10;99.90;;;;;;4970059;28;20175;-70
2022/05/15 02:02:07;;;;;;;1999.90;999.90;;;14.10;99.90;;;;;;4970212;28;20181;-68
2022/05/15 02:04:33;;;;;;;1999.90;999.90;;;14.10;99.90;;;;;;4970084;28;20206;-71
2022/05/15 02:06:59;;;;;;;1999.90;999.90;;;14.00;99.90;;;;;;4970248;28;20444;-71
2022/05/15 02:09:26;;;;;;;1999.90;999.90;;;14.00;99.90;;;;;;4970296;28;20401;-71
2022/05/15 02:11:51;;;;;;;1999.90;999.90;;;14.00;99.90;;;;;;4970256;28;20184;-71
2022/05/15 02:14:17;;;;;;;1999.90;999.90;;;14.00;99.90;;;;;;4969774;28;20407;-71
2022/05/15 02:16:43;;;;;;;1999.90;999.90;;;14.00;99.90;;;;;;4969927;28;20686;-71
2022/05/15 02:19:08;;;;;;;1999.90;999.90;;;14.00;99.90;;;;;;4970040;28;20181;-71
2022/05/15 02:21:34;;;;;;;1999.90;999.90;;;14.00;99.90;;;;;;4969917;28;20565;-71
2022/05/15 02:24:00;;;;;;;1999.90;999.90;;;13.90;99.90;;;;;;4971069;28;20171;-71
2022/05/15 02:26:26;;;;;;;1999.90;999.90;;;13.90;99.90;;;;;;4972914;28;20466;-71
2022/05/15 02:28:51;;;;;;;1999.90;999.90;;;13.90;99.90;;;;;;4973354;28;20416;-71
2022/05/15 02:31:17;;;;;;;1999.90;999.90;;;13.90;99.90;;;;;;4973440;28;20556;-71
2022/05/15 02:33:43;;;;;;;1999.90;999.90;;;13.90;99.90;;;;;;4973129;28;20175;-69
2022/05/15 02:36:10;;;;;;;1999.90;999.90;;;13.90;99.90;;;;;;4972753;28;20739;-68
2022/05/15 02:38:37;;;;;;;1999.90;999.90;;;13.80;99.90;;;;;;4973051;28;20663;-69
2022/05/15 02:41:03;;;;;;;1999.90;999.90;;;13.80;99.90;;;;;;4972995;28;20472;-69
2022/05/15 02:43:29;;;;;;;1999.90;999.90;;;13.70;99.90;;;;;;4972771;28;20418;-70
2022/05/15 02:45:55;;;;;;;1999.90;999.90;;;13.70;99.90;;;;;;4972619;28;20456;-71
2022/05/15 02:51:07;;;;;;;1999.90;999.90;;;13.70;99.90;;;;;;4975829;28;20797;-71
2022/05/15 02:53:34;;;;;;;1999.90;999.90;;;13.60;99.90;;;;;;4972787;28;21008;-71
2022/05/15 02:56:01;;;;;;;1999.90;999.90;;;13.70;99.90;;;;;;4972364;28;20438;-71
2022/05/15 02:58:28;;;;;;;1999.90;999.90;;;13.70;99.90;;;;;;4972787;28;20922;-71
2022/05/15 03:00:55;;;;;;;1999.90;999.90;;;13.70;99.90;;;;;;4972812;28;20415;-71
2022/05/15 03:03:21;;;;;;;1999.90;999.90;;;13.70;99.90;;;;;;4972699;28;20440;-71
2022/05/15 03:05:47;;;;;;;1999.90;999.90;;;13.60;99.90;;;;;;4972205;28;20481;-71
2022/05/15 03:08:12;;;;;;;1999.90;999.90;;;13.60;99.90;;;;;;4972720;28;20177;-71
2022/05/15 03:10:38;;;;;;;1999.90;999.90;;;13.50;99.90;;;;;;4972452;28;20572;-68
2022/05/15 03:13:03;;;;;;;1999.90;999.90;;;13.50;99.90;;;;;;4972471;28;20167;-71
2022/05/15 03:15:29;;;;;;;1999.90;999.90;;;13.50;99.90;;;;;;4972054;28;20669;-69
2022/05/15 03:17:54;;;;;;;1999.90;999.90;;;13.40;99.90;;;;;;4972613;28;20171;-71
2022/05/15 03:20:20;;;;;;;1999.90;999.90;;;13.40;99.90;;;;;;4972571;28;20668;-71
2022/05/15 03:22:46;;;;;;;1999.90;999.90;;;13.40;99.90;;;;;;4972534;28;20179;-71
2022/05/15 03:25:12;;;;;;;1999.90;999.90;;;13.30;99.90;;;;;;4971901;28;20667;-71
2022/05/15 03:27:37;;;;;;;1999.90;999.90;;;13.30;99.90;;;;;;4972242;28;20164;-71
2022/05/15 03:30:05;;;;;;;1999.90;999.90;;;13.30;99.90;;;;;;4972336;28;20503;-71
2022/05/15 03:32:31;;;;;;;1999.90;999.90;;;13.20;99.90;;;;;;4972161;28;20297;-71
2022/05/15 03:34:56;;;;;;;1999.90;999.90;;;13.10;99.90;;;;;;4971169;28;20513;-71
2022/05/15 03:37:22;;;;;;;1999.90;999.90;;;13.10;99.90;;;;;;4972074;28;20442;-71
2022/05/15 03:39:47;;;;;;;1999.90;999.90;;;13.10;99.90;;;;;;4971975;28;20235;-70
2022/05/15 03:42:13;;;;;;;1999.90;999.90;;;13.10;99.90;;;;;;4972226;28;20199;-71
2022/05/15 03:44:39;;;;;;;1999.90;999.90;;;13.10;99.90;;;;;;4971736;28;20176;-71
2022/05/15 03:47:08;;;;;;;1999.90;999.90;;;13.00;99.90;;;;;;4972354;28;20556;-71
2022/05/15 03:49:34;;;;;;;1999.90;999.90;;;12.80;99.90;;;;;;4971956;28;20654;-71
2022/05/15 03:51:59;;;;;;;1999.90;999.90;;;12.80;99.90;;;;;;4971828;28;20440;-71
2022/05/15 03:54:25;;;;;;;1999.90;999.90;;;12.80;99.90;;;;;;4971703;28;20194;-71
2022/05/15 03:56:50;;;;;;;1999.90;999.90;;;12.70;99.90;;;;;;4971908;28;20188;-71
2022/05/15 03:59:23;;;;;;;1999.90;999.90;;;12.70;99.90;;;;;;4971925;28;20690;-71
2022/05/15 04:01:50;;;;;;;1999.90;999.90;;;12.80;99.90;;;;;;4971811;28;20170;-71
2022/05/15 04:04:16;;;;;;;1999.90;999.90;;;12.80;99.90;;;;;;4971421;28;20436;-71
2022/05/15 04:06:41;;;;;;;1999.90;999.90;;;12.70;99.90;;;;;;4971431;28;20496;-70
2022/05/15 04:09:07;;;;;;;1999.90;999.90;;;12.60;99.90;;;;;;4971510;28;20448;-71
2022/05/15 04:11:33;;;;;;;1999.90;999.90;;;12.60;99.90;;;;;;4971501;28;20206;-71
2022/05/15 04:13:59;;;;;;;1999.90;999.90;;;12.60;99.90;;;;;;4971605;28;20480;-71
2022/05/15 04:16:25;;;;;;;1999.90;999.90;;;12.50;99.90;;;;;;4971826;28;20439;-71
2022/05/15 04:18:50;;;;;;;1999.90;999.90;;;12.50;99.90;;;;;;4972201;28;20170;-71
2022/05/15 04:21:16;;;;;;;1999.90;999.90;;;12.50;99.90;;;;;;4971727;28;20202;-71
2022/05/15 04:23:41;;;;;;;1999.90;999.90;;;12.60;99.90;;;;;;4971721;28;20190;-71
2022/05/15 04:26:07;;;;;;;1999.90;999.90;;;12.60;99.90;;;;;;4971614;28;20207;-71
2022/05/15 04:28:33;;;;;;;1999.90;999.90;;;12.70;99.90;;;;;;4971817;28;20210;-71
2022/05/15 04:30:58;;;;;;;1999.90;999.90;;;12.70;99.90;;;;;;4971717;28;20665;-71
2022/05/15 04:33:24;;;;;;;1999.90;999.90;;;12.70;99.90;;;;;;4971799;28;20407;-71
2022/05/15 04:35:50;;;;;;;1999.90;999.90;;;12.80;99.90;;;;;;4971001;28;20198;-71
2022/05/15 04:38:15;;;;;;;1999.90;999.90;;;12.80;99.90;;;;;;4971371;28;20506;-71
2022/05/15 04:40:41;;;;;;;1999.90;999.90;;;12.90;99.90;;;;;;4971187;28;20170;-71
2022/05/15 04:43:07;;;;;;;1999.90;999.90;;;13.00;99.90;;;;;;4971384;28;20205;-71
2022/05/15 04:45:32;;;;;;;1999.90;999.90;;;13.00;99.90;;;;;;4970570;28;20198;-71
2022/05/15 04:47:58;;;;;;;1999.90;999.90;;;13.10;99.90;;;;;;4969832;28;20948;-71
2022/05/15 04:50:24;;;;;;;1999.90;999.90;;;13.20;99.90;;;;;;4970915;28;20178;-71
2022/05/15 04:52:49;;;;;;;1999.90;999.90;;;13.30;99.90;;;;;;4970769;28;20175;-69
2022/05/15 04:55:15;;;;;;;1999.90;999.90;;;13.40;99.90;;;;;;4970542;28;20177;-71
2022/05/15 04:57:41;;;;;;;1999.90;999.90;;;13.50;99.90;;;;;;4970811;28;20175;-71
2022/05/15 05:00:11;;;;;;;1999.90;999.90;;;13.60;99.90;;;;;;4970734;28;20945;-71
2022/05/15 05:02:37;;;;;;;1999.90;999.90;;;13.70;99.90;;;;;;4970759;28;20542;-69
2022/05/15 05:05:03;;;;;;;1999.90;999.90;;;13.80;99.90;;;;;;4970313;28;20437;-71
2022/05/15 05:07:29;;;;;;;1999.90;999.90;;;13.80;99.90;;;;;;4970482;28;20194;-71
2022/05/15 05:09:56;;;;;;;1999.90;999.90;;;13.90;99.90;;;;;;4970575;28;20497;-71
2022/05/15 05:12:21;;;;;;;1999.90;999.90;;;14.00;99.90;;;;;;4970697;28;20491;-71
2022/05/15 05:14:47;;;;;;;1999.90;999.90;;;14.00;99.90;;;;;;4970300;28;20844;-71
2022/05/15 05:17:14;;;;;;;1999.90;999.90;;;14.10;99.90;;;;;;4970461;28;20198;-71
2022/05/15 05:19:39;;;;;;;1999.90;999.90;;;14.10;99.90;;;;;;4970447;28;20162;-71
2022/05/15 05:22:05;;;;;;;1999.90;999.90;;;14.20;99.90;;;;;;4970411;28;20406;-71
2022/05/15 05:24:31;;;;;;;1999.90;999.90;;;14.30;99.90;;;;;;4970129;28;20172;-71
2022/05/15 05:26:57;;;;;;;1999.90;999.90;;;14.40;99.90;;;;;;4970373;28;20656;-71
2022/05/15 05:29:22;;;;;;;1999.90;999.90;;;14.50;99.90;;;;;;4971761;28;20656;-71
2022/05/15 05:31:49;;;;;;;1999.90;999.90;;;14.60;99.90;;;;;;4970918;28;20259;-71
2022/05/15 05:34:15;;;;;;;1999.90;999.90;;;14.60;99.90;;;;;;4972135;28;20166;-71
2022/05/15 05:36:41;;;;;;;1999.90;999.90;;;14.70;99.90;;;;;;4971263;28;20512;-69
2022/05/15 05:39:08;;;;;;;1999.90;999.90;;;14.70;99.90;;;;;;4971540;28;20932;-69
2022/05/15 05:41:33;;;;;;;1999.90;999.90;;;14.80;99.90;;;;;;4971559;28;20412;-71
2022/05/15 05:44:00;;;;;;;1999.90;999.90;;;14.80;99.90;;;;;;4972241;28;20759;-71
2022/05/15 05:46:27;;;;;;;1999.90;999.90;;;14.90;99.90;;;;;;4971771;28;20213;-71
2022/05/15 05:48:53;;;;;;;1999.90;999.90;;;14.90;99.90;;;;;;4971991;28;20422;-71
2022/05/15 05:51:19;;;;;;;1999.90;999.90;;;15.00;99.90;;;;;;4971329;28;20452;-69
2022/05/15 05:53:45;;;;;;;1999.90;999.90;;;15.00;99.90;;;;;;4970944;28;20929;-71
2022/05/15 05:56:11;;;;;;;1999.90;999.90;;;15.20;99.90;;;;;;4970850;28;20434;-71
2022/05/15 05:58:37;;;;;;;1999.90;999.90;;;15.30;99.90;;;;;;4971772;28;20176;-71
2022/05/15 06:01:03;;;;;;;1999.90;999.90;;;15.40;99.90;;;;;;4974361;28;20177;-71
2022/05/15 06:06:13;;;;;;;1999.90;999.90;;;15.70;99.90;;;;;;4974662;28;20464;-71
2022/05/15 06:08:40;;;;;;;1999.90;999.90;;;15.80;99.90;;;;;;4974953;28;20412;-69
2022/05/15 06:11:05;;;;;;;1999.90;999.90;;;15.80;99.90;;;;;;4975070;28;20197;-69
2022/05/15 06:13:31;;;;;;;1999.90;999.90;;;15.90;99.90;;;;;;4975035;28;20762;-69
2022/05/15 06:15:57;;;;;;;1999.90;999.90;;;16.00;99.90;;;;;;4974226;28;20480;-69
2022/05/15 06:18:23;;;;;;;1999.90;999.90;;;16.10;99.90;;;;;;4974613;28;20479;-69
2022/05/15 06:20:48;;;;;;;1999.90;999.90;;;16.20;99.90;;;;;;4974158;28;20176;-69
2022/05/15 06:23:14;;;;;;;1999.90;999.90;;;16.30;99.90;;;;;;4974380;28;20177;-69
2022/05/15 06:25:39;;;;;;;1999.90;999.90;;;16.30;99.90;;;;;;4973859;28;20213;-71
2022/05/15 06:28:06;;;;;;;1999.90;999.90;;;16.40;99.90;;;;;;4973714;28;20636;-71
2022/05/15 06:30:31;;;;;;;1999.90;999.90;;;16.50;99.90;;;;;;4973660;28;20177;-69
2022/05/15 06:32:59;;;;;;;1999.90;999.90;;;16.60;99.90;;;;;;4973573;28;20427;-69
2022/05/15 06:35:25;;;;;;;1999.90;999.90;;;16.60;99.90;;;;;;4972644;28;20168;-69
2022/05/15 06:37:50;;;;;;;1999.90;999.90;;;16.60;99.90;;;;;;4973138;28;20414;-69
2022/05/15 06:40:17;;;;;;;1999.90;999.90;;;16.70;99.90;;;;;;4973146;28;20926;-69
2022/05/15 06:42:43;;;;;;;1999.90;999.90;;;16.90;99.90;;;;;;4972733;28;20270;-70
2022/05/15 06:45:10;;;;;;;1999.90;999.90;;;17.10;99.90;;;;;;4972329;28;20559;-69
2022/05/15 06:47:36;;;;;;;1999.90;999.90;;;17.20;99.90;;;;;;4972735;28;20446;-69
2022/05/15 06:50:02;;;;;;;1999.90;999.90;;;17.30;99.90;;;;;;4972784;28;20449;-69
2022/05/15 06:52:28;;;;;;;1999.90;999.90;;;17.40;99.90;;;;;;4972514;28;20399;-69
2022/05/15 06:54:54;;;;;;;1999.90;999.90;;;17.60;99.90;;;;;;4971951;28;20412;-69
2022/05/15 06:57:29;;;;;;;1999.90;999.90;;;17.70;99.90;;;;;;4972798;28;20650;-68
2022/05/15 06:59:59;;;;;;;1999.90;999.90;;;17.90;99.90;;;;;;4972513;28;20513;-69
2022/05/15 07:02:27;;;;;;;1999.90;999.90;;;18.10;99.90;;;;;;4972526;28;20412;-69
2022/05/15 07:04:53;;;;;;;1999.90;999.90;;;18.30;99.90;;;;;;4972110;28;20556;-69
2022/05/15 07:07:19;;;;;;;1999.90;999.90;;;18.40;99.90;;;;;;4972482;28;20434;-69
2022/05/15 07:09:45;;;;;;;1999.90;999.90;;;18.50;99.90;;;;;;4972241;28;20769;-70
2022/05/15 07:12:12;;;;;;;1999.90;999.90;;;18.60;99.90;;;;;;4973175;28;20251;-70
2022/05/15 07:14:38;;;;;;;1999.90;999.90;;;18.70;99.90;;;;;;4973012;28;20900;-69
2022/05/15 07:17:04;;;;;;;1999.90;999.90;;;18.90;99.90;;;;;;4973212;28;20566;-69
2022/05/15 07:19:29;;;;;;;1999.90;999.90;;;19.00;99.90;;;;;;4972348;28;20408;-69
2022/05/15 07:21:55;;;;;;;1999.90;999.90;;;19.00;99.90;;;;;;4972215;28;20482;-69
2022/05/15 07:24:22;;;;;;;1999.90;999.90;;;19.10;99.90;;;;;;4972076;28;20204;-69
2022/05/15 07:26:48;;;;;;;1999.90;999.90;;;19.20;99.90;;;;;;4972071;28;20743;-69
2022/05/15 07:29:15;;;;;;;1999.90;999.90;;;19.40;99.90;;;;;;4972254;28;20491;-69
2022/05/15 07:31:41;;;;;;;1999.90;999.90;;;19.40;99.90;;;;;;4972201;28;20417;-69
2022/05/15 07:34:07;;;;;;;1999.90;999.90;;;19.50;99.90;;;;;;4971796;28;20754;-69
2022/05/15 07:36:33;;;;;;;1999.90;999.90;;;19.50;99.90;;;;;;4972011;28;20430;-69
2022/05/15 07:38:59;;;;;;;1999.90;999.90;;;19.60;99.90;;;;;;4971969;28;20471;-69
2022/05/15 07:41:25;;;;;;;1999.90;999.90;;;19.80;99.90;;;;;;4971935;28;20508;-69
2022/05/15 07:43:50;;;;;;;1999.90;999.90;;;19.80;99.90;;;;;;4971880;28;20185;-69
2022/05/15 07:46:16;;;;;;;1999.90;999.90;;;19.90;99.90;;;;;;4971473;28;20216;-69
2022/05/15 07:48:42;;;;;;;1999.90;999.90;;;20.00;99.90;;;;;;4971857;28;20173;-69
2022/05/15 07:51:08;;;;;;;1999.90;999.90;;;20.10;99.90;;;;;;4971758;28;20664;-69
2022/05/15 07:53:34;;;;;;;1999.90;999.90;;;20.30;99.90;;;;;;4971720;28;20413;-69
2022/05/15 07:56:03;;;;;;;1999.90;999.90;;;20.30;99.90;;;;;;4971249;28;20659;-68
2022/05/15 07:58:30;;;;;;;1999.90;999.90;;;20.50;99.90;;;;;;4966005;28;20408;-68
2022/05/15 08:00:56;;;;;;;1999.90;999.90;;;20.70;99.90;;;;;;4967087;28;20933;-70
2022/05/15 08:03:22;;;;;;;1999.90;999.90;;;20.80;99.90;;;;;;4968714;28;20509;-68
2022/05/15 08:08:32;;;;;;;1999.90;999.90;;;21.00;99.90;;;;;;4966679;28;20429;-68
2022/05/15 08:10:59;;;;;;;1999.90;999.90;;;21.00;99.90;;;;;;4966784;28;20935;-71
2022/05/15 08:13:26;;;;;;;1999.90;999.90;;;21.20;99.90;;;;;;4966647;28;20237;-69
2022/05/15 08:15:52;;;;;;;1999.90;999.90;;;21.30;99.90;;;;;;4965721;28;20562;-69
2022/05/15 08:23:52;;;;;;;1999.90;999.90;;;21.60;99.90;;;;;;4966626;28;20406;-69
2022/05/15 08:26:19;;;;;;;1999.90;999.90;;;21.60;99.90;;;;;;4966975;28;20470;-69
2022/05/15 08:28:46;;;;;;;1999.90;999.90;;;21.70;99.90;;;;;;4966181;28;20430;-69
2022/05/15 08:31:12;;;;;;;1999.90;999.90;;;21.60;99.90;;;;;;4949808;28;20439;-70
2022/05/15 08:33:39;;;;;;;1999.90;999.90;;;21.70;99.90;;;;;;4966269;28;20400;-70
2022/05/15 08:36:06;;;;;;;1999.90;999.90;;;21.70;99.90;;;;;;4949032;28;20439;-68
2022/05/15 08:38:32;;;;;;;1999.90;999.90;;;21.80;99.90;;;;;;4966928;28;20435;-68
2022/05/15 08:41:02;;;;;;;1999.90;999.90;;;21.90;99.90;;;;;;4966553;28;20423;-68
2022/05/15 08:43:50;;;;;;;1999.90;999.90;;;22.00;99.90;;;;;;4966381;28;20416;-68
2022/05/15 08:46:49;;;;;;;1999.90;999.90;;;22.10;99.90;;;;;;4927626;28;21333;-68
2022/05/15 08:49:38;;;;;;;1999.90;999.90;;;22.20;99.90;;;;;;4966330;28;20457;-70
2022/05/15 08:52:37;;;;;;;1999.90;999.90;;;22.30;99.90;;;;;;4965995;28;21072;-70
2022/05/15 08:55:14;;;;;;;1999.90;999.90;;;22.30;99.90;;;;;;4966252;28;20473;-69
2022/05/15 08:58:05;;;;;;;1999.90;999.90;;;22.40;99.90;;;;;;4967146;28;20406;-69
2022/05/15 09:00:35;;;;;;;1999.90;999.90;;;22.40;99.90;;;;;;4966488;28;21121;-69
2022/05/15 09:03:26;;;;;;;1999.90;999.90;;;22.50;99.90;;;;;;4966215;28;20481;-69
2022/05/15 09:05:54;;;;;;;1999.90;999.90;;;22.50;99.90;;;;;;4965770;28;20446;-69
2022/05/15 09:08:41;;;;;;;1999.90;999.90;;;22.60;99.90;;;;;;4966269;28;20489;-69
2022/05/15 09:11:09;;;;;;;1999.90;999.90;;;22.70;99.90;;;;;;4968868;28;20388;-68
2022/05/15 09:14:04;;;;;;;1999.90;999.90;;;22.80;99.90;;;;;;4970349;28;20384;-68
2022/05/15 09:16:30;;;;;;;1999.90;999.90;;;22.90;99.90;;;;;;4970007;28;20464;-68
2022/05/15 09:19:08;;;;;;;1999.90;999.90;;;23.10;99.90;;;;;;4970344;28;20834;-68
2022/05/15 09:21:34;;;;;;;1999.90;999.90;;;23.20;99.90;;;;;;4970520;28;20412;-68
2022/05/15 09:24:14;;;;;;;1999.90;999.90;;;23.40;99.90;;;;;;4970284;28;20861;-68
2022/05/15 09:26:47;;;;;;;1999.90;999.90;;;23.50;99.90;;;;;;4970316;28;20436;-68
2022/05/15 09:29:28;;;;;;;1999.90;999.90;;;23.50;99.90;;;;;;4970196;28;20441;-68
2022/05/15 09:31:54;;;;;;;1999.90;999.90;;;23.70;99.90;;;;;;4970179;28;20394;-68
2022/05/15 09:34:20;;;;;;;1999.90;999.90;;;23.80;99.90;;;;;;4974551;28;20401;-68
2022/05/15 09:36:48;;;;;;;1999.90;999.90;;;23.90;99.90;;;;;;4976635;28;20490;-68
2022/05/15 09:39:20;;;;;;;1999.90;999.90;;;24.00;99.90;;;;;;4976945;28;20182;-68
2022/05/15 09:44:42;;;;;;;1999.90;999.90;;;24.30;99.90;;;;;;4976304;28;20407;-68
2022/05/15 09:47:11;;;;;;;1999.90;999.90;;;24.40;99.90;;;;;;4976929;28;20447;-68
2022/05/15 09:49:37;;;;;;;1999.90;999.90;;;24.40;97.70;;;;;;4976707;28;20235;-68
2022/05/15 09:52:15;;;;;;;1999.90;999.90;;;24.50;97.70;;;;;;4976583;28;20939;-68
2022/05/15 09:54:45;;;;;;;1999.90;999.90;;;24.60;97.60;;;;;;4976391;28;20685;-68
2022/05/15 09:57:25;;;;;;;1999.90;999.90;;;24.80;94.70;;;;;;4976343;28;20429;-68
2022/05/15 09:59:58;;;;;;;1999.90;999.90;;;24.90;94.90;;;;;;4976573;28;20433;-68
2022/05/15 10:02:44;;;;;;;1999.90;999.90;;;25.10;92.60;;;;;;4976441;28;20384;-69
2022/05/15 10:05:30;;;;;;;1999.90;999.90;;;25.20;93.50;;;;;;4975692;28;20931;-68
2022/05/15 10:08:20;;;;;;;1999.90;999.90;;;25.40;92.50;;;;;;4976527;28;20395;-69
2022/05/15 10:10:57;;;;;;;1999.90;999.90;;;25.40;90.40;;;;;;4976348;28;20962;-68
2022/05/15 10:13:28;;;;;;;1999.90;999.90;;;25.40;87.00;;;;;;4976410;28;20463;-69
2022/05/15 10:15:57;;;;;;;1999.90;999.90;;;25.40;87.10;;;;;;4975851;28;20511;-69
2022/05/15 10:18:27;;;;;;;1999.90;999.90;;;25.60;88.00;;;;;;4976302;28;20414;-69
2022/05/15 10:20:54;;;;;;;1999.90;999.90;;;25.50;80.50;;;;;;4976347;28;20459;-69
2022/05/15 10:23:29;;;;;;;1999.90;999.90;;;25.50;82.50;;;;;;4976180;28;20493;-69
2022/05/15 10:25:59;;;;;;;1999.90;999.90;;;25.50;82.50;;;;;;4975871;28;20465;-69
2022/05/15 10:28:51;;;;;;;1999.90;999.90;;;25.70;81.50;;;;;;4976509;28;20462;-70
2022/05/15 10:31:26;;;;;;;1999.90;999.90;;;25.70;82.60;;;;;;4967086;28;20437;-69
2022/05/15 10:33:56;;;;;;;1999.90;999.90;;;26.00;80.40;;;;;;4977118;28;20405;-70
2022/05/15 10:36:43;;;;;;;1999.90;999.90;;;26.00;77.80;;;;;;4977195;28;20457;-70
2022/05/15 10:39:26;;;;;;;1999.90;999.90;;;26.10;78.80;;;;;;4976943;28;20409;-68
2022/05/15 10:42:13;;;;;;;1999.90;999.90;;;26.20;76.60;;;;;;4977222;28;20412;-69
2022/05/15 10:45:00;;;;;;;1999.90;999.90;;;26.40;74.20;;;;;;4975798;28;20409;-70
2022/05/15 10:47:40;;;;;;;1999.90;999.90;;;26.50;70.50;;;;;;4973780;28;20429;-69
2022/05/15 10:50:27;;;;;;;1999.90;999.90;;;26.60;71.20;;;;;;4974220;28;20386;-69
2022/05/15 10:59:27;;;;;;;1999.90;999.90;;;27.20;62.50;;;;;;4974221;28;20926;-70
2022/05/15 11:02:13;;;;;;;1999.90;999.90;;;27.40;59.10;;;;;;4973422;28;20413;-68
2022/05/15 11:04:39;;;;;;;1999.90;999.90;;;27.50;59.10;;;;;;4972258;28;20880;-68
2022/05/15 11:07:26;;;;;;;1999.90;999.90;;;27.70;57.10;;;;;;4972320;28;20441;-68
2022/05/15 11:10:10;;;;;;;1999.90;999.90;;;27.90;56.00;;;;;;4972448;28;20174;-68
2022/05/15 11:13:12;;;;;;;1999.90;999.90;;;28.10;53.60;;;;;;4972358;28;20504;-68
2022/05/15 11:15:41;;;;;;;1999.90;999.90;;;28.10;52.40;;;;;;4971888;28;20509;-68
2022/05/15 11:18:29;;;;;;;1999.90;999.90;;;28.10;52.00;;;;;;4972314;28;20402;-68
2022/05/15 11:21:01;;;;;;;1999.90;999.90;;;28.10;46.60;;;;;;4972583;28;20409;-68
2022/05/15 11:23:44;;;;;;;1999.90;999.90;;;28.10;46.60;;;;;;4972291;28;20413;-69
2022/05/15 11:26:23;;;;;;;1999.90;999.90;;;28.10;44.90;;;;;;4971887;28;20877;-68
2022/05/15 11:28:58;;;;;;;1999.90;999.90;;;28.10;44.30;;;;;;4972296;28;20429;-68
2022/05/15 11:31:31;;;;;;;1999.90;999.90;;;28.00;41.00;;;;;;4972112;28;20406;-68
2022/05/15 11:34:05;;;;;;;1999.90;999.90;;;28.00;43.10;;;;;;4972008;28;20459;-68
2022/05/15 11:36:39;;;;;;;1999.90;999.90;;;28.10;41.10;;;;;;4972007;28;20452;-68
2022/05/15 11:39:14;;;;;;;1999.90;999.90;;;28.30;40.00;;;;;;4972027;28;20481;-68
2022/05/15 11:41:42;;;;;;;1999.90;999.90;;;28.60;41.70;;;;;;4971989;28;20406;-68
2022/05/15 11:44:34;;;;;;;1999.90;999.90;;;28.80;37.40;;;;;;4971666;28;20783;-68
2022/05/15 11:47:02;;;;;;;1999.90;999.90;;;28.80;35.10;;;;;;4971711;28;21057;-68
2022/05/15 11:49:35;;;;;;;1999.90;999.90;;;29.00;36.10;;;;;;4971814;28;20405;-69
2022/05/15 11:52:04;;;;;;;1999.90;999.90;;;29.10;30.70;;;;;;4971907;28;20406;-69
2022/05/15 11:54:37;;;;;;;1999.90;999.90;;;29.10;29.70;;;;;;4971423;28;20962;-69
2022/05/15 11:57:08;;;;;;;1999.90;999.90;;;29.20;29.10;;;;;;4971152;28;20433;-69
2022/05/15 11:59:52;;;;;;;1999.90;999.90;;;29.60;27.60;;;;;;4971683;28;20778;-69
2022/05/15 12:02:20;;;;;;;1999.90;999.90;;;30.00;30.70;;;;;;4971625;28;20782;-69
2022/05/15 12:04:46;;;;;;;1999.90;999.90;;;30.30;27.40;;;;;;4971255;28;20410;-69
2022/05/15 12:07:14;;;;;;;1999.90;999.90;;;30.50;25.10;;;;;;4971446;28;20433;-69
2022/05/15 12:09:40;;;;;;;1999.90;999.90;;;30.30;21.70;;;;;;4971551;28;20520;-69
2022/05/15 12:12:24;;;;;;;1999.90;999.90;;;30.20;23.90;;;;;;4971901;28;20543;-69
2022/05/15 12:15:02;;;;;;;1999.90;999.90;;;30.80;25.30;;;;;;4971202;28;20163;-69
2022/05/15 12:17:34;;;;;;;1999.90;999.90;;;31.70;23.50;;;;;;4971300;28;20493;-69
2022/05/15 12:20:21;;;;;;;1999.90;999.90;;;32.50;21.10;;;;;;4971363;28;20891;-69
2022/05/15 12:22:52;;;;;;;1999.90;999.90;;;33.30;20.40;;;;;;4971487;28;20417;-69
2022/05/15 12:25:22;;;;;;;1999.90;999.90;;;33.90;16.80;;;;;;4970900;28;20529;-69
2022/05/15 12:30:47;;;;;;;1999.90;999.90;;;35.00;14.70;;;;;;4971445;28;20780;-69
2022/05/15 12:33:13;;;;;;;1999.90;999.90;;;35.60;11.40;;;;;;4971127;28;20430;-68
2022/05/15 12:35:43;;;;;;;1999.90;999.90;;;36.10;12.40;;;;;;4970842;28;20421;-68